Delray Beach, FL (33483)

1:55 AM EDT on August 02, 2015 (GMT -0400)
Casa Delray | | Change Station
CLOSE
Current Station
Personal Weather Station
Location: Delray Beach, FL
Elevation: 22 ft
Nearby Weather Stations

Elev 22 ft 26.48 °N, 80.07 °W | Updated 1 minute ago

Overcast
Overcast
82.0 °F
Feels Like 91 °F
N
6.5
Wind Variable Wind from SSE
Gusts 7.4 mph

Today
High -- | Low -- °F
--% Chance of Precip.
Yesterday
High -- | Low -- °F
Precip. -- in
6:45 AM 8:06 PM
Waning Gibbous, 95% visible
Pressure 29.99 in
Visibility 10.0 miles
Clouds Scattered Clouds 5500 ft
Heat Index 91 °F
Dew Point 79 °F
Humidity 90%
Rainfall 0.05 in
Snow Depth Not available.
UV 0.0 out of 12
Pollen 2.70 out of 12
Air Quality Not available.
Flu Activity Not available.
METAR KPMP 020553Z AUTO 19005KT 10SM SCT055 29/24 A2999 RMK AO2 SLP156 60001 T02890244 10294 20250 56007

More Conditions Fewer Conditions

Pressure 29.99 in
Visibility 10.0 miles
Clouds Scattered Clouds 5500 ft
Heat Index 91 °F
Dew Point 79 °F
Humidity 90%
Rainfall 0.05 in
Snow Depth Not available.
UV 0.0 out of 12
Pollen 2.70 out of 12
Air Quality Not available.
Flu Activity Not available.
METAR KPMP 020553Z AUTO 19005KT 10SM SCT055 29/24 A2999 RMK AO2 SLP156 60001 T02890244 10294 20250 56007

More Conditions Fewer Conditions

10-Day Weather Forecast

×

Almanac

Astronomy

Aug. 02, 2015 Rise Set
Actual Time
Civil Twilight
Nautical Twilight
Astronomical Twilight
Moon
Length of Visible Light
Length of Day
Tomorrow will be .
, % of the Moon is Illuminated

Today's Extremes

State Highs State Lows

Community

WunderPhotos

Upload Photos

1,843,196 photos uploaded!

WunderBlogs® & News

Nearby

Air Quality

  Air Quality AQ Index Pollutant
Not available.

Snow Depth

Station Depth Elevation

Earthquake Activity

City Distance Mag. Time & Date
Minimum magnitude displayed is 2.5.

Coastal Water Temperatures

Place Temperature

Stations

Nearby Weather Stations

Station Location Temp. Windchill Dew Point Humidity Wind Precip. Elev Updated Type